createdAt,value
2022-07-27T00:01:16.529Z,101340.59
2022-07-27T00:04:19.878Z,101336.28
2022-07-27T00:07:23.368Z,101341.97
2022-07-27T00:10:27.643Z,101340.56
2022-07-27T00:13:30.449Z,101344.81
2022-07-27T00:16:33.513Z,101342.91
2022-07-27T00:19:36.266Z,101333.63
2022-07-27T00:22:38.857Z,101343.19
2022-07-27T00:25:42.809Z,101340.41
2022-07-27T00:28:45.422Z,101338.84
2022-07-27T00:31:48.074Z,101337.53
2022-07-27T00:34:50.773Z,101343.09
2022-07-27T00:37:53.471Z,101334.00
2022-07-27T00:40:57.449Z,101344.19
2022-07-27T00:44:01.332Z,101332.66
2022-07-27T00:47:04.735Z,101336.09
2022-07-27T00:50:08.622Z,101327.72
2022-07-27T00:53:11.905Z,101337.31
2022-07-27T00:56:17.008Z,101332.13
2022-07-27T00:59:21.179Z,101336.97
2022-07-27T01:02:23.939Z,101334.13
2022-07-27T01:05:36.624Z,101336.97
2022-07-27T01:08:42.525Z,101334.38
2022-07-27T01:11:47.072Z,101332.22
2022-07-27T01:14:51.157Z,101335.50
2022-07-27T01:17:53.737Z,101337.31
2022-07-27T01:20:56.957Z,101332.81
2022-07-27T01:24:01.151Z,101341.41
2022-07-27T01:27:05.256Z,101339.72
2022-07-27T01:30:26.396Z,101336.28
2022-07-27T01:33:29.186Z,101338.69
2022-07-27T01:36:32.012Z,101333.47
2022-07-27T01:39:35.941Z,101327.56
2022-07-27T01:42:38.566Z,101326.84
2022-07-27T01:45:41.199Z,101329.00
2022-07-27T01:48:44.082Z,101324.25
2022-07-27T01:51:46.823Z,101329.31
2022-07-27T01:54:50.761Z,101329.09
2022-07-27T01:57:53.375Z,101323.28
2022-07-27T02:00:56.015Z,101329.28
2022-07-27T02:03:58.652Z,101327.59
2022-07-27T02:07:01.261Z,101327.44
2022-07-27T02:10:05.952Z,101327.44
2022-07-27T02:13:22.106Z,101327.09
2022-07-27T02:16:25.407Z,101322.56
2022-07-27T02:19:29.079Z,101318.69
2022-07-27T02:22:31.816Z,101316.91
2022-07-27T02:25:36.123Z,101316.72
2022-07-27T02:28:39.318Z,101324.84
2022-07-27T02:31:41.999Z,101326.59
2022-07-27T02:34:45.164Z,101325.72
2022-07-27T02:37:48.163Z,101316.72
2022-07-27T02:40:52.204Z,101321.22
2022-07-27T02:43:54.845Z,101316.72
2022-07-27T02:46:57.499Z,101312.94
2022-07-27T02:50:00.129Z,101313.66
2022-07-27T02:53:02.756Z,101319.28
2022-07-27T02:56:07.045Z,101314.28
2022-07-27T02:59:09.933Z,101306.69
2022-07-27T03:02:12.813Z,101310.81
2022-07-27T03:05:15.674Z,101311.09
2022-07-27T03:08:18.269Z,101316.88
2022-07-27T03:11:22.300Z,101314.19
2022-07-27T03:14:25.585Z,101318.28
2022-07-27T03:17:28.315Z,101323.13
2022-07-27T03:20:30.933Z,101321.13
2022-07-27T03:23:33.604Z,101323.34
2022-07-27T03:26:37.643Z,101329.22
2022-07-27T03:29:40.282Z,101322.94
2022-07-27T03:32:42.927Z,101329.75
2022-07-27T03:35:45.777Z,101331.94
2022-07-27T03:38:48.556Z,101342.28
2022-07-27T03:41:52.545Z,101347.09
2022-07-27T03:44:55.148Z,101340.81
2022-07-27T03:47:57.877Z,101336.59
2022-07-27T03:51:00.528Z,101338.84
2022-07-27T03:54:03.886Z,101336.16
2022-07-27T03:57:07.771Z,101337.88
2022-07-27T04:00:12.409Z,101333.16
2022-07-27T04:03:15.017Z,101331.81
2022-07-27T04:06:17.630Z,101337.72
2022-07-27T04:09:21.208Z,101331.63
2022-07-27T04:12:25.246Z,101332.94
2022-07-27T04:15:28.264Z,101330.25
2022-07-27T04:18:30.950Z,101332.25
2022-07-27T04:21:34.558Z,101328.25
2022-07-27T04:24:37.353Z,101327.00
2022-07-27T04:27:41.364Z,101340.94
2022-07-27T04:30:44.027Z,101348.34
2022-07-27T04:33:46.875Z,101350.41
2022-07-27T04:36:50.514Z,101347.19
2022-07-27T04:39:57.737Z,101345.19
2022-07-27T04:43:03.022Z,101336.75
2022-07-27T04:46:08.483Z,101343.97
2022-07-27T04:49:14.820Z,101342.09
2022-07-27T04:52:17.986Z,101347.44
2022-07-27T04:55:21.523Z,101352.13
2022-07-27T04:58:25.842Z,101346.78
2022-07-27T05:01:34.703Z,101352.22
2022-07-27T05:04:37.917Z,101351.88
2022-07-27T05:07:40.565Z,101348.44
2022-07-27T05:10:43.136Z,101353.69
2022-07-27T05:13:47.093Z,101351.16
2022-07-27T05:16:50.028Z,101359.06
2022-07-27T05:19:52.947Z,101348.53
2022-07-27T05:22:55.545Z,101353.72
2022-07-27T05:25:58.217Z,101354.75
2022-07-27T05:29:02.233Z,101359.94
2022-07-27T05:32:05.822Z,101357.34
2022-07-27T05:35:09.513Z,101358.72
2022-07-27T05:38:12.243Z,101362.19
2022-07-27T05:41:14.893Z,101362.25
2022-07-27T05:44:18.921Z,101363.06
2022-07-27T05:47:21.726Z,101372.31
2022-07-27T05:50:24.310Z,101369.16
2022-07-27T05:53:27.419Z,101372.03
2022-07-27T05:56:30.369Z,101375.31
2022-07-27T05:59:36.071Z,101378.41
2022-07-27T06:02:38.664Z,101381.81
2022-07-27T06:05:41.350Z,101385.50
2022-07-27T06:08:43.198Z,101389.16
2022-07-27T06:11:45.816Z,101381.38
2022-07-27T06:14:51.120Z,101388.13
2022-07-27T06:17:54.741Z,101388.72
2022-07-27T06:20:57.336Z,101394.34
2022-07-27T06:23:59.972Z,101396.19
2022-07-27T06:27:02.653Z,101402.34
2022-07-27T06:30:07.885Z,101402.97
2022-07-27T06:33:10.488Z,101409.03
2022-07-27T06:36:13.548Z,101412.59
2022-07-27T06:39:16.279Z,101415.56
2022-07-27T06:42:18.946Z,101416.97
2022-07-27T06:45:22.918Z,101421.13
2022-07-27T06:48:26.299Z,101412.22
2022-07-27T06:51:28.980Z,101411.88
2022-07-27T06:54:32.252Z,101417.44
2022-07-27T06:57:34.907Z,101422.38
2022-07-27T07:00:38.914Z,101416.19
2022-07-27T07:03:41.603Z,101421.75
2022-07-27T07:06:44.374Z,101418.06
2022-07-27T07:09:47.020Z,101430.00
2022-07-27T07:12:49.715Z,101426.09
2022-07-27T07:15:53.879Z,101418.81
2022-07-27T07:18:56.488Z,101427.88
2022-07-27T07:21:59.074Z,101435.72
2022-07-27T07:25:03.161Z,101438.41
2022-07-27T07:28:06.933Z,101436.38
2022-07-27T07:31:11.141Z,101439.50
2022-07-27T07:34:13.809Z,101435.72
2022-07-27T07:37:16.503Z,101436.09
2022-07-27T07:43:43.402Z,101433.13
2022-07-27T07:46:47.588Z,101437.25
2022-07-27T07:49:50.380Z,101441.13
2022-07-27T07:52:54.846Z,101443.31
2022-07-27T07:55:58.314Z,101445.53
2022-07-27T07:59:04.766Z,101442.16
2022-07-27T08:02:08.812Z,101431.75
2022-07-27T08:05:12.101Z,101441.56
2022-07-27T08:08:14.904Z,101446.56
2022-07-27T08:11:17.577Z,101435.00
2022-07-27T08:14:20.203Z,101428.19
2022-07-27T08:17:24.152Z,101426.50
2022-07-27T08:20:28.312Z,101433.47
2022-07-27T08:23:31.759Z,101433.78
2022-07-27T08:26:34.747Z,101435.13
2022-07-27T08:29:37.644Z,101431.69
2022-07-27T08:32:50.110Z,101430.38
2022-07-27T08:35:52.883Z,101434.09
2022-07-27T08:38:55.629Z,101421.63
2022-07-27T08:42:04.136Z,101438.34
2022-07-27T08:45:09.047Z,101439.91
2022-07-27T08:48:15.424Z,101436.78
2022-07-27T08:51:18.359Z,101440.78
2022-07-27T08:54:21.837Z,101448.97
2022-07-27T08:57:24.491Z,101455.78
2022-07-27T09:00:27.960Z,101471.16
2022-07-27T09:03:32.858Z,101473.19
2022-07-27T09:06:43.422Z,101469.78
2022-07-27T09:09:48.315Z,101463.53
2022-07-27T09:12:51.017Z,101461.31
2022-07-27T09:16:16.872Z,101453.19
2022-07-27T09:19:19.500Z,101469.22
2022-07-27T09:22:39.611Z,101459.88
2022-07-27T09:26:02.990Z,101460.94
2022-07-27T09:29:07.214Z,101464.09
2022-07-27T09:32:15.678Z,101462.59
2022-07-27T09:35:22.936Z,101466.13
2022-07-27T09:38:26.759Z,101466.03
2022-07-27T09:41:41.186Z,101457.09
2022-07-27T09:44:46.126Z,101461.41
2022-07-27T09:48:07.767Z,101457.94
2022-07-27T09:51:57.640Z,101459.03
2022-07-27T09:54:44.462Z,101460.09
2022-07-27T09:57:54.670Z,101453.13
2022-07-27T10:00:58.801Z,101446.50
2022-07-27T10:04:04.607Z,101457.31
2022-07-27T10:07:13.247Z,101459.03
2022-07-27T10:10:17.000Z,101446.50
2022-07-27T10:13:19.643Z,101445.00
2022-07-27T10:16:24.265Z,101448.47
2022-07-27T10:19:32.408Z,101449.31
2022-07-27T10:22:53.600Z,101453.19
2022-07-27T10:26:20.313Z,101463.34
2022-07-27T10:29:24.505Z,101461.59
2022-07-27T10:32:31.009Z,101460.50
2022-07-27T10:35:35.203Z,101454.28
2022-07-27T10:38:48.536Z,101471.75
2022-07-27T10:41:51.259Z,101465.69
2022-07-27T10:45:02.843Z,101462.66
2022-07-27T10:48:05.868Z,101460.78
2022-07-27T10:51:09.696Z,101459.91
2022-07-27T10:54:23.357Z,101472.72
2022-07-27T10:57:27.948Z,101469.16
2022-07-27T11:00:59.301Z,101475.63
2022-07-27T11:04:10.309Z,101473.56
2022-07-27T11:07:26.683Z,101471.25
2022-07-27T11:10:43.732Z,101462.16
2022-07-27T11:13:47.104Z,101466.72
2022-07-27T11:16:55.859Z,101457.53
2022-07-27T11:20:00.610Z,101467.84
2022-07-27T11:23:50.414Z,101471.97
2022-07-27T11:26:45.713Z,101467.22
2022-07-27T11:29:48.433Z,101469.22
2022-07-27T11:32:51.160Z,101464.97
2022-07-27T11:35:55.004Z,101463.25
2022-07-27T11:38:57.648Z,101464.38
2022-07-27T11:42:08.621Z,101459.63
2022-07-27T11:45:13.432Z,101461.06
2022-07-27T11:48:18.696Z,101467.38
2022-07-27T11:51:21.918Z,101463.28
2022-07-27T11:54:28.114Z,101480.16
2022-07-27T11:57:34.073Z,101474.56
2022-07-27T12:00:44.759Z,101476.56
2022-07-27T12:03:47.804Z,101486.81
2022-07-27T12:06:59.218Z,101497.78
2022-07-27T12:10:06.787Z,101487.28
2022-07-27T12:13:19.348Z,101487.03
2022-07-27T12:16:22.110Z,101486.56
2022-07-27T12:19:25.297Z,101497.69
2022-07-27T12:22:34.031Z,101504.84
2022-07-27T12:25:39.658Z,101497.63
2022-07-27T12:28:43.716Z,101503.69
2022-07-27T12:31:50.120Z,101491.25
2022-07-27T12:34:52.927Z,101485.28
2022-07-27T12:38:00.721Z,101485.06
2022-07-27T12:41:03.462Z,101489.13
2022-07-27T12:44:09.488Z,101488.84
2022-07-27T12:47:30.037Z,101484.50
2022-07-27T12:50:33.164Z,101494.97
2022-07-27T12:53:37.855Z,101505.78
2022-07-27T12:56:40.835Z,101497.53
2022-07-27T13:02:55.052Z,101505.88
2022-07-27T13:05:57.849Z,101502.38
2022-07-27T13:09:00.450Z,101500.69
2022-07-27T13:12:03.381Z,101506.63
2022-07-27T13:15:07.950Z,101515.38
2022-07-27T13:18:11.896Z,101514.53
2022-07-27T13:21:14.989Z,101513.03
2022-07-27T13:24:17.697Z,101519.63
2022-07-27T13:27:21.440Z,101513.75
2022-07-27T13:30:24.892Z,101515.72
2022-07-27T13:33:29.638Z,101506.16
2022-07-27T13:36:32.283Z,101507.13
2022-07-27T13:39:34.866Z,101507.09
2022-07-27T13:42:37.807Z,101509.09
2022-07-27T13:45:42.958Z,101506.19
2022-07-27T18:39:23.838Z,101520.66
2022-07-27T18:42:36.370Z,101525.97
2022-07-27T18:45:39.830Z,101529.41
2022-07-27T18:48:44.317Z,101528.59
2022-07-27T18:51:46.981Z,101526.13
2022-07-27T18:54:50.931Z,101529.25
2022-07-27T18:57:55.464Z,101543.81
2022-07-27T19:00:58.450Z,101535.91
2022-07-27T19:04:01.979Z,101549.59
2022-07-27T19:07:06.530Z,101546.63
2022-07-27T19:10:11.744Z,101552.09
2022-07-27T19:13:14.887Z,101559.03
2022-07-27T19:16:17.535Z,101551.59
2022-07-27T19:19:23.033Z,101550.25
2022-07-27T19:22:27.209Z,101557.94
2022-07-27T19:25:31.373Z,101560.72
2022-07-27T19:28:34.007Z,101555.84
2022-07-27T19:31:37.802Z,101564.66
2022-07-27T19:34:40.639Z,101568.56
2022-07-27T19:37:43.243Z,101574.19
2022-07-27T19:40:47.580Z,101578.19
2022-07-27T19:43:50.588Z,101584.00
2022-07-27T19:46:53.402Z,101584.16
2022-07-27T19:49:55.977Z,101579.72
2022-07-27T19:52:58.607Z,101585.94
2022-07-27T19:56:02.579Z,101584.06
2022-07-27T19:59:05.153Z,101592.69
2022-07-27T20:02:07.966Z,101591.44
2022-07-27T20:05:11.227Z,101586.09
2022-07-27T20:08:14.786Z,101596.13
2022-07-27T20:11:18.723Z,101586.63
2022-07-27T20:14:21.371Z,101586.38
2022-07-27T20:17:23.967Z,101590.81
2022-07-27T20:20:26.715Z,101586.47
2022-07-27T20:23:29.395Z,101593.72
2022-07-27T20:26:33.348Z,101597.50
2022-07-27T20:29:35.987Z,101593.75
2022-07-27T20:32:38.680Z,101591.72
2022-07-27T20:35:41.338Z,101595.03
2022-07-27T20:38:43.932Z,101597.94
2022-07-27T20:41:47.855Z,101605.72
2022-07-27T20:44:50.470Z,101605.41
2022-07-27T20:47:53.037Z,101604.78
2022-07-27T20:50:55.639Z,101604.63
2022-07-27T20:53:58.318Z,101610.66
2022-07-27T20:57:02.375Z,101601.78
2022-07-27T21:00:06.431Z,101604.69
2022-07-27T21:03:09.031Z,101611.84
2022-07-27T21:06:11.651Z,101620.88
2022-07-27T21:09:15.291Z,101614.78
2022-07-27T21:12:19.587Z,101613.19
2022-07-27T21:15:22.272Z,101618.53
2022-07-27T21:18:36.025Z,101612.25
2022-07-27T21:21:38.631Z,101617.53
2022-07-27T21:24:41.227Z,101621.59
2022-07-27T21:27:47.129Z,101624.72
2022-07-27T21:30:50.822Z,101630.34
2022-07-27T21:33:53.473Z,101633.28
2022-07-27T21:36:56.202Z,101631.50
2022-07-27T21:39:58.818Z,101638.00
2022-07-27T21:43:02.763Z,101633.84
2022-07-27T21:46:05.399Z,101642.97
2022-07-27T21:49:08.370Z,101635.81
2022-07-27T21:52:11.177Z,101642.16
2022-07-27T21:55:13.918Z,101635.78
2022-07-27T21:58:26.888Z,101641.34
2022-07-27T22:01:29.506Z,101635.63
2022-07-27T22:04:32.184Z,101633.53
2022-07-27T22:07:34.822Z,101635.53
2022-07-27T22:10:37.430Z,101639.88
2022-07-27T22:13:41.416Z,101635.13
2022-07-27T22:16:44.214Z,101636.59
2022-07-27T22:19:46.824Z,101639.84
2022-07-27T22:22:50.747Z,101645.97
2022-07-27T22:25:53.432Z,101647.94
2022-07-27T22:28:57.423Z,101650.53
2022-07-27T22:32:00.061Z,101650.13
2022-07-27T22:35:02.784Z,101645.91
2022-07-27T22:38:05.337Z,101645.78
2022-07-27T22:41:08.016Z,101642.16
2022-07-27T22:44:12.354Z,101644.31
2022-07-27T22:47:15.326Z,101648.84
2022-07-27T22:50:20.314Z,101645.38
2022-07-27T22:53:22.949Z,101644.97
2022-07-27T22:56:25.557Z,101644.53
2022-07-27T22:59:29.599Z,101644.97
2022-07-27T23:02:32.162Z,101648.00
2022-07-27T23:05:34.815Z,101651.75
2022-07-27T23:08:37.475Z,101654.16
2022-07-27T23:11:40.050Z,101653.59
2022-07-27T23:14:43.958Z,101649.44
2022-07-27T23:17:51.874Z,101646.78
2022-07-27T23:20:54.669Z,101645.03
2022-07-27T23:23:57.271Z,101645.31
2022-07-27T23:27:01.325Z,101649.34
2022-07-27T23:30:05.951Z,101652.19
2022-07-27T23:33:08.663Z,101652.06
2022-07-27T23:36:11.942Z,101645.91
2022-07-27T23:39:14.576Z,101652.31
2022-07-27T23:42:17.171Z,101647.66
2022-07-27T23:45:21.388Z,101649.69
2022-07-27T23:48:24.994Z,101651.41
2022-07-27T23:51:29.250Z,101655.00
2022-07-27T23:54:32.286Z,101656.28
2022-07-27T23:57:34.925Z,101652.97
